sensor_id;sensor_type;location;lat;lon;timestamp;P1;durP1;ratioP1;P2;durP2;ratioP2
23658;SDS011;12006;42.666;23.326;2023-02-28T00:00:19;20.83;;;15.60;;
23658;SDS011;12006;42.666;23.326;2023-02-28T00:02:46;22.90;;;16.20;;
23658;SDS011;12006;42.666;23.326;2023-02-28T00:05:13;24.07;;;16.73;;
23658;SDS011;12006;42.666;23.326;2023-02-28T00:07:40;23.63;;;17.10;;
23658;SDS011;12006;42.666;23.326;2023-02-28T00:10:07;22.07;;;16.30;;
23658;SDS011;12006;42.666;23.326;2023-02-28T00:12:35;21.73;;;15.80;;
23658;SDS011;12006;42.666;23.326;2023-02-28T00:15:02;23.00;;;16.93;;
23658;SDS011;12006;42.666;23.326;2023-02-28T00:17:30;21.77;;;15.87;;
23658;SDS011;12006;42.666;23.326;2023-02-28T00:19:56;24.43;;;16.80;;
23658;SDS011;12006;42.666;23.326;2023-02-28T00:22:22;24.23;;;17.93;;
23658;SDS011;12006;42.666;23.326;2023-02-28T00:24:47;23.63;;;17.90;;
23658;SDS011;12006;42.666;23.326;2023-02-28T00:27:13;22.13;;;16.60;;
23658;SDS011;12006;42.666;23.326;2023-02-28T00:29:39;21.43;;;16.13;;
23658;SDS011;12006;42.666;23.326;2023-02-28T00:32:06;23.57;;;15.43;;
23658;SDS011;12006;42.666;23.326;2023-02-28T00:34:31;21.63;;;15.70;;
23658;SDS011;12006;42.666;23.326;2023-02-28T00:37:02;21.73;;;15.70;;
23658;SDS011;12006;42.666;23.326;2023-02-28T00:39:33;22.83;;;15.80;;
23658;SDS011;12006;42.666;23.326;2023-02-28T00:42:00;24.37;;;15.47;;
23658;SDS011;12006;42.666;23.326;2023-02-28T00:44:27;21.50;;;15.30;;
23658;SDS011;12006;42.666;23.326;2023-02-28T00:46:52;21.80;;;15.17;;
23658;SDS011;12006;42.666;23.326;2023-02-28T00:49:19;22.70;;;15.47;;
23658;SDS011;12006;42.666;23.326;2023-02-28T00:51:45;21.73;;;15.63;;
23658;SDS011;12006;42.666;23.326;2023-02-28T00:54:11;20.57;;;14.67;;
23658;SDS011;12006;42.666;23.326;2023-02-28T00:56:36;22.23;;;15.80;;
23658;SDS011;12006;42.666;23.326;2023-02-28T00:59:01;22.80;;;15.37;;
23658;SDS011;12006;42.666;23.326;2023-02-28T01:01:27;21.57;;;15.83;;
23658;SDS011;12006;42.666;23.326;2023-02-28T01:03:52;25.23;;;17.20;;
23658;SDS011;12006;42.666;23.326;2023-02-28T01:06:18;21.87;;;15.80;;
23658;SDS011;12006;42.666;23.326;2023-02-28T01:08:43;26.10;;;17.10;;
23658;SDS011;12006;42.666;23.326;2023-02-28T01:11:10;22.80;;;17.00;;
23658;SDS011;12006;42.666;23.326;2023-02-28T01:13:37;25.03;;;16.10;;
23658;SDS011;12006;42.666;23.326;2023-02-28T01:16:03;26.27;;;18.33;;
23658;SDS011;12006;42.666;23.326;2023-02-28T01:18:28;25.70;;;18.37;;
23658;SDS011;12006;42.666;23.326;2023-02-28T01:20:54;28.30;;;17.97;;
23658;SDS011;12006;42.666;23.326;2023-02-28T01:23:20;24.87;;;18.20;;
23658;SDS011;12006;42.666;23.326;2023-02-28T01:25:48;26.10;;;18.83;;
23658;SDS011;12006;42.666;23.326;2023-02-28T01:28:16;25.60;;;17.87;;
23658;SDS011;12006;42.666;23.326;2023-02-28T01:30:42;25.23;;;17.60;;
23658;SDS011;12006;42.666;23.326;2023-02-28T01:33:07;26.43;;;18.13;;
23658;SDS011;12006;42.666;23.326;2023-02-28T01:35:33;28.70;;;18.60;;
23658;SDS011;12006;42.666;23.326;2023-02-28T01:38:00;31.10;;;19.93;;
23658;SDS011;12006;42.666;23.326;2023-02-28T01:40:25;27.93;;;20.33;;
23658;SDS011;12006;42.666;23.326;2023-02-28T01:42:51;33.97;;;21.73;;
23658;SDS011;12006;42.666;23.326;2023-02-28T01:45:27;32.23;;;22.40;;
23658;SDS011;12006;42.666;23.326;2023-02-28T01:47:55;31.13;;;21.13;;
23658;SDS011;12006;42.666;23.326;2023-02-28T01:50:28;31.30;;;21.37;;
23658;SDS011;12006;42.666;23.326;2023-02-28T01:52:59;30.73;;;21.63;;
23658;SDS011;12006;42.666;23.326;2023-02-28T01:55:29;31.07;;;22.13;;
23658;SDS011;12006;42.666;23.326;2023-02-28T01:57:58;31.30;;;21.37;;
23658;SDS011;12006;42.666;23.326;2023-02-28T02:00:27;32.20;;;20.80;;
23658;SDS011;12006;42.666;23.326;2023-02-28T02:02:58;31.07;;;20.47;;
23658;SDS011;12006;42.666;23.326;2023-02-28T02:05:30;30.37;;;21.77;;
23658;SDS011;12006;42.666;23.326;2023-02-28T02:08:06;32.40;;;21.23;;
23658;SDS011;12006;42.666;23.326;2023-02-28T02:10:47;28.23;;;21.60;;
23658;SDS011;12006;42.666;23.326;2023-02-28T02:18:31;28.97;;;21.20;;
23658;SDS011;12006;42.666;23.326;2023-02-28T02:35:02;29.87;;;19.93;;
23658;SDS011;12006;42.666;23.326;2023-02-28T02:40:16;32.17;;;20.53;;
23658;SDS011;12006;42.666;23.326;2023-02-28T02:45:29;36.70;;;22.50;;
23658;SDS011;12006;42.666;23.326;2023-02-28T02:48:01;34.97;;;22.33;;
23658;SDS011;12006;42.666;23.326;2023-02-28T02:50:30;35.40;;;23.73;;
23658;SDS011;12006;42.666;23.326;2023-02-28T02:53:03;39.87;;;23.83;;
23658;SDS011;12006;42.666;23.326;2023-02-28T02:55:32;34.13;;;21.57;;
23658;SDS011;12006;42.666;23.326;2023-02-28T02:58:03;40.00;;;25.17;;
23658;SDS011;12006;42.666;23.326;2023-02-28T03:00:39;47.73;;;26.80;;
23658;SDS011;12006;42.666;23.326;2023-02-28T03:03:08;42.97;;;26.57;;
23658;SDS011;12006;42.666;23.326;2023-02-28T03:05:41;41.17;;;26.90;;
23658;SDS011;12006;42.666;23.326;2023-02-28T03:08:09;45.23;;;27.77;;
23658;SDS011;12006;42.666;23.326;2023-02-28T03:10:39;48.40;;;27.90;;
23658;SDS011;12006;42.666;23.326;2023-02-28T03:13:26;50.03;;;27.93;;
23658;SDS011;12006;42.666;23.326;2023-02-28T03:18:59;45.60;;;28.40;;
23658;SDS011;12006;42.666;23.326;2023-02-28T03:27:13;45.77;;;27.00;;
23658;SDS011;12006;42.666;23.326;2023-02-28T03:29:44;40.73;;;25.50;;
23658;SDS011;12006;42.666;23.326;2023-02-28T03:32:24;39.67;;;24.97;;
23658;SDS011;12006;42.666;23.326;2023-02-28T03:35:03;40.03;;;24.83;;
23658;SDS011;12006;42.666;23.326;2023-02-28T03:37:45;39.43;;;25.37;;
23658;SDS011;12006;42.666;23.326;2023-02-28T03:40:13;38.03;;;25.17;;
23658;SDS011;12006;42.666;23.326;2023-02-28T03:42:43;38.80;;;24.37;;
23658;SDS011;12006;42.666;23.326;2023-02-28T03:48:10;39.07;;;23.90;;
23658;SDS011;12006;42.666;23.326;2023-02-28T03:50:45;35.60;;;22.73;;
23658;SDS011;12006;42.666;23.326;2023-02-28T03:56:09;41.13;;;25.87;;
23658;SDS011;12006;42.666;23.326;2023-02-28T03:58:46;36.53;;;23.23;;
23658;SDS011;12006;42.666;23.326;2023-02-28T04:01:23;37.83;;;24.30;;
23658;SDS011;12006;42.666;23.326;2023-02-28T04:03:55;38.73;;;23.27;;
23658;SDS011;12006;42.666;23.326;2023-02-28T04:06:21;38.77;;;23.30;;
23658;SDS011;12006;42.666;23.326;2023-02-28T04:08:47;37.73;;;25.30;;
23658;SDS011;12006;42.666;23.326;2023-02-28T04:11:18;38.50;;;25.27;;
23658;SDS011;12006;42.666;23.326;2023-02-28T04:13:51;43.57;;;26.97;;
23658;SDS011;12006;42.666;23.326;2023-02-28T04:16:16;39.20;;;24.30;;
23658;SDS011;12006;42.666;23.326;2023-02-28T04:18:43;44.10;;;26.43;;
23658;SDS011;12006;42.666;23.326;2023-02-28T04:21:08;46.10;;;27.33;;
23658;SDS011;12006;42.666;23.326;2023-02-28T04:23:35;45.87;;;27.33;;
23658;SDS011;12006;42.666;23.326;2023-02-28T04:26:00;41.03;;;25.17;;
23658;SDS011;12006;42.666;23.326;2023-02-28T04:28:26;43.67;;;25.57;;
23658;SDS011;12006;42.666;23.326;2023-02-28T04:30:55;39.63;;;24.37;;
23658;SDS011;12006;42.666;23.326;2023-02-28T04:33:26;39.50;;;24.23;;
23658;SDS011;12006;42.666;23.326;2023-02-28T04:36:01;36.00;;;22.50;;
23658;SDS011;12006;42.666;23.326;2023-02-28T04:38:30;35.10;;;21.30;;
23658;SDS011;12006;42.666;23.326;2023-02-28T04:40:58;33.30;;;21.63;;
23658;SDS011;12006;42.666;23.326;2023-02-28T04:43:25;37.63;;;22.13;;
23658;SDS011;12006;42.666;23.326;2023-02-28T04:45:51;40.20;;;23.00;;
23658;SDS011;12006;42.666;23.326;2023-02-28T04:48:17;34.40;;;21.53;;
23658;SDS011;12006;42.666;23.326;2023-02-28T04:50:42;33.23;;;21.57;;
23658;SDS011;12006;42.666;23.326;2023-02-28T04:53:08;32.50;;;21.03;;
23658;SDS011;12006;42.666;23.326;2023-02-28T04:55:33;34.53;;;21.20;;
23658;SDS011;12006;42.666;23.326;2023-02-28T04:57:59;38.40;;;23.43;;
23658;SDS011;12006;42.666;23.326;2023-02-28T05:00:24;34.90;;;22.30;;
23658;SDS011;12006;42.666;23.326;2023-02-28T05:02:50;32.10;;;21.70;;
23658;SDS011;12006;42.666;23.326;2023-02-28T05:05:15;39.17;;;23.20;;
23658;SDS011;12006;42.666;23.326;2023-02-28T05:07:43;37.17;;;23.43;;
23658;SDS011;12006;42.666;23.326;2023-02-28T05:10:09;37.37;;;23.23;;
23658;SDS011;12006;42.666;23.326;2023-02-28T05:12:35;40.73;;;24.17;;
23658;SDS011;12006;42.666;23.326;2023-02-28T05:15:00;35.07;;;22.10;;
23658;SDS011;12006;42.666;23.326;2023-02-28T05:17:27;36.57;;;23.17;;
23658;SDS011;12006;42.666;23.326;2023-02-28T05:19:52;33.53;;;23.07;;
23658;SDS011;12006;42.666;23.326;2023-02-28T05:22:18;36.97;;;23.97;;
23658;SDS011;12006;42.666;23.326;2023-02-28T05:24:43;38.13;;;23.60;;
23658;SDS011;12006;42.666;23.326;2023-02-28T05:27:09;41.67;;;25.70;;
23658;SDS011;12006;42.666;23.326;2023-02-28T05:29:35;38.87;;;23.57;;
23658;SDS011;12006;42.666;23.326;2023-02-28T05:32:07;38.07;;;24.17;;
23658;SDS011;12006;42.666;23.326;2023-02-28T05:34:36;42.93;;;24.93;;
23658;SDS011;12006;42.666;23.326;2023-02-28T05:37:05;33.67;;;23.33;;
23658;SDS011;12006;42.666;23.326;2023-02-28T05:39:31;37.53;;;23.53;;
23658;SDS011;12006;42.666;23.326;2023-02-28T05:41:58;38.07;;;25.67;;
23658;SDS011;12006;42.666;23.326;2023-02-28T05:44:23;39.60;;;24.60;;
23658;SDS011;12006;42.666;23.326;2023-02-28T05:46:49;37.40;;;23.70;;
23658;SDS011;12006;42.666;23.326;2023-02-28T05:49:14;31.27;;;21.73;;
23658;SDS011;12006;42.666;23.326;2023-02-28T05:51:40;38.03;;;24.20;;
23658;SDS011;12006;42.666;23.326;2023-02-28T05:54:06;35.63;;;23.23;;
23658;SDS011;12006;42.666;23.326;2023-02-28T05:56:32;39.70;;;24.97;;
23658;SDS011;12006;42.666;23.326;2023-02-28T05:58:59;36.53;;;23.00;;
23658;SDS011;12006;42.666;23.326;2023-02-28T06:01:38;38.30;;;24.43;;
23658;SDS011;12006;42.666;23.326;2023-02-28T06:04:07;37.13;;;23.00;;
23658;SDS011;12006;42.666;23.326;2023-02-28T06:06:34;32.93;;;23.00;;
23658;SDS011;12006;42.666;23.326;2023-02-28T06:09:01;37.87;;;22.77;;
23658;SDS011;12006;42.666;23.326;2023-02-28T06:11:26;38.93;;;24.70;;
23658;SDS011;12006;42.666;23.326;2023-02-28T06:13:53;39.63;;;25.07;;
23658;SDS011;12006;42.666;23.326;2023-02-28T06:16:20;43.13;;;25.67;;
23658;SDS011;12006;42.666;23.326;2023-02-28T06:18:46;43.50;;;28.20;;
23658;SDS011;12006;42.666;23.326;2023-02-28T06:21:11;45.37;;;27.50;;
23658;SDS011;12006;42.666;23.326;2023-02-28T06:23:37;42.33;;;25.87;;
23658;SDS011;12006;42.666;23.326;2023-02-28T06:26:02;44.57;;;28.57;;
23658;SDS011;12006;42.666;23.326;2023-02-28T06:28:28;42.97;;;29.47;;
23658;SDS011;12006;42.666;23.326;2023-02-28T06:30:53;44.60;;;27.20;;
23658;SDS011;12006;42.666;23.326;2023-02-28T06:33:19;47.63;;;29.03;;
23658;SDS011;12006;42.666;23.326;2023-02-28T06:35:54;44.40;;;26.23;;
23658;SDS011;12006;42.666;23.326;2023-02-28T06:38:20;44.13;;;26.63;;
23658;SDS011;12006;42.666;23.326;2023-02-28T06:40:52;39.47;;;26.03;;
23658;SDS011;12006;42.666;23.326;2023-02-28T06:43:22;37.23;;;26.07;;
23658;SDS011;12006;42.666;23.326;2023-02-28T06:45:49;35.73;;;24.77;;
23658;SDS011;12006;42.666;23.326;2023-02-28T06:48:14;34.83;;;23.87;;
23658;SDS011;12006;42.666;23.326;2023-02-28T06:50:40;38.93;;;24.30;;
23658;SDS011;12006;42.666;23.326;2023-02-28T06:53:05;34.33;;;23.00;;
23658;SDS011;12006;42.666;23.326;2023-02-28T06:55:31;35.17;;;23.33;;
23658;SDS011;12006;42.666;23.326;2023-02-28T06:57:57;30.13;;;22.67;;
23658;SDS011;12006;42.666;23.326;2023-02-28T07:00:23;32.83;;;24.40;;
23658;SDS011;12006;42.666;23.326;2023-02-28T07:02:49;34.97;;;23.37;;
23658;SDS011;12006;42.666;23.326;2023-02-28T07:05:15;34.40;;;24.63;;
23658;SDS011;12006;42.666;23.326;2023-02-28T07:07:41;32.67;;;23.17;;
23658;SDS011;12006;42.666;23.326;2023-02-28T07:10:12;33.93;;;23.03;;
23658;SDS011;12006;42.666;23.326;2023-02-28T07:12:39;40.57;;;30.30;;
23658;SDS011;12006;42.666;23.326;2023-02-28T07:15:05;38.80;;;27.80;;
23658;SDS011;12006;42.666;23.326;2023-02-28T07:17:31;35.37;;;24.87;;
23658;SDS011;12006;42.666;23.326;2023-02-28T07:19:56;37.13;;;24.43;;
23658;SDS011;12006;42.666;23.326;2023-02-28T07:22:22;37.23;;;26.47;;
23658;SDS011;12006;42.666;23.326;2023-02-28T07:24:47;43.87;;;29.23;;
23658;SDS011;12006;42.666;23.326;2023-02-28T07:27:13;42.63;;;31.27;;
23658;SDS011;12006;42.666;23.326;2023-02-28T07:29:48;41.87;;;30.50;;
23658;SDS011;12006;42.666;23.326;2023-02-28T07:32:14;37.93;;;27.27;;
23658;SDS011;12006;42.666;23.326;2023-02-28T07:34:39;34.67;;;25.53;;
23658;SDS011;12006;42.666;23.326;2023-02-28T07:37:05;35.40;;;24.30;;
23658;SDS011;12006;42.666;23.326;2023-02-28T07:39:30;34.10;;;24.83;;
23658;SDS011;12006;42.666;23.326;2023-02-28T07:41:56;33.97;;;24.63;;
23658;SDS011;12006;42.666;23.326;2023-02-28T07:44:21;34.30;;;21.73;;
23658;SDS011;12006;42.666;23.326;2023-02-28T07:46:47;35.43;;;22.80;;
23658;SDS011;12006;42.666;23.326;2023-02-28T07:49:12;37.30;;;23.70;;
23658;SDS011;12006;42.666;23.326;2023-02-28T07:51:37;33.30;;;23.13;;
23658;SDS011;12006;42.666;23.326;2023-02-28T07:54:03;39.10;;;24.50;;
23658;SDS011;12006;42.666;23.326;2023-02-28T07:56:29;32.00;;;23.13;;
23658;SDS011;12006;42.666;23.326;2023-02-28T07:58:54;30.70;;;24.00;;
23658;SDS011;12006;42.666;23.326;2023-02-28T08:01:19;33.43;;;21.97;;
23658;SDS011;12006;42.666;23.326;2023-02-28T08:03:45;30.70;;;22.90;;
23658;SDS011;12006;42.666;23.326;2023-02-28T08:06:21;36.03;;;24.37;;
23658;SDS011;12006;42.666;23.326;2023-02-28T08:08:48;34.40;;;24.87;;
23658;SDS011;12006;42.666;23.326;2023-02-28T08:11:14;31.67;;;21.67;;
23658;SDS011;12006;42.666;23.326;2023-02-28T08:13:41;31.17;;;23.63;;
23658;SDS011;12006;42.666;23.326;2023-02-28T08:16:07;26.43;;;20.87;;
23658;SDS011;12006;42.666;23.326;2023-02-28T08:18:33;27.23;;;21.53;;
23658;SDS011;12006;42.666;23.326;2023-02-28T08:20:58;28.93;;;21.10;;
23658;SDS011;12006;42.666;23.326;2023-02-28T08:23:24;26.97;;;19.90;;
23658;SDS011;12006;42.666;23.326;2023-02-28T08:25:53;29.10;;;21.10;;
23658;SDS011;12006;42.666;23.326;2023-02-28T08:28:20;32.90;;;23.93;;
23658;SDS011;12006;42.666;23.326;2023-02-28T08:30:45;29.67;;;22.33;;
23658;SDS011;12006;42.666;23.326;2023-02-28T08:33:11;30.17;;;21.37;;
23658;SDS011;12006;42.666;23.326;2023-02-28T08:35:36;27.10;;;20.77;;
23658;SDS011;12006;42.666;23.326;2023-02-28T08:38:02;29.23;;;21.17;;
23658;SDS011;12006;42.666;23.326;2023-02-28T08:40:27;29.53;;;20.70;;
23658;SDS011;12006;42.666;23.326;2023-02-28T08:42:53;27.57;;;20.40;;
23658;SDS011;12006;42.666;23.326;2023-02-28T08:45:18;31.20;;;20.57;;
23658;SDS011;12006;42.666;23.326;2023-02-28T08:47:44;27.17;;;21.07;;
23658;SDS011;12006;42.666;23.326;2023-02-28T08:50:09;30.03;;;21.67;;
23658;SDS011;12006;42.666;23.326;2023-02-28T08:52:35;30.93;;;22.70;;
23658;SDS011;12006;42.666;23.326;2023-02-28T08:55:00;33.30;;;22.80;;
23658;SDS011;12006;42.666;23.326;2023-02-28T08:57:26;32.87;;;23.53;;
23658;SDS011;12006;42.666;23.326;2023-02-28T08:59:52;31.47;;;23.33;;
23658;SDS011;12006;42.666;23.326;2023-02-28T09:02:18;30.00;;;21.83;;
23658;SDS011;12006;42.666;23.326;2023-02-28T09:04:43;30.50;;;21.20;;
23658;SDS011;12006;42.666;23.326;2023-02-28T09:07:12;37.13;;;26.33;;
23658;SDS011;12006;42.666;23.326;2023-02-28T09:09:37;36.77;;;24.47;;
23658;SDS011;12006;42.666;23.326;2023-02-28T09:12:18;31.73;;;23.93;;
23658;SDS011;12006;42.666;23.326;2023-02-28T09:14:44;36.27;;;26.03;;
23658;SDS011;12006;42.666;23.326;2023-02-28T09:17:10;41.07;;;27.17;;
23658;SDS011;12006;42.666;23.326;2023-02-28T09:19:36;45.30;;;28.43;;
23658;SDS011;12006;42.666;23.326;2023-02-28T09:22:02;41.00;;;28.00;;
23658;SDS011;12006;42.666;23.326;2023-02-28T09:24:27;41.03;;;27.80;;
23658;SDS011;12006;42.666;23.326;2023-02-28T09:26:52;38.57;;;27.70;;
23658;SDS011;12006;42.666;23.326;2023-02-28T09:29:18;39.77;;;27.10;;
23658;SDS011;12006;42.666;23.326;2023-02-28T09:31:43;42.07;;;28.53;;
23658;SDS011;12006;42.666;23.326;2023-02-28T09:34:09;40.10;;;28.03;;
23658;SDS011;12006;42.666;23.326;2023-02-28T09:36:35;49.00;;;29.40;;
23658;SDS011;12006;42.666;23.326;2023-02-28T09:39:02;42.03;;;29.40;;
23658;SDS011;12006;42.666;23.326;2023-02-28T09:41:28;40.47;;;27.97;;
23658;SDS011;12006;42.666;23.326;2023-02-28T09:44:04;42.37;;;26.53;;
23658;SDS011;12006;42.666;23.326;2023-02-28T09:46:34;38.23;;;27.60;;
23658;SDS011;12006;42.666;23.326;2023-02-28T09:49:11;42.90;;;29.87;;
23658;SDS011;12006;42.666;23.326;2023-02-28T09:54:22;47.43;;;29.43;;
23658;SDS011;12006;42.666;23.326;2023-02-28T09:57:32;35.90;;;22.77;;
23658;SDS011;12006;42.666;23.326;2023-02-28T09:59:59;29.10;;;19.20;;
23658;SDS011;12006;42.666;23.326;2023-02-28T10:05:08;18.83;;;14.00;;
23658;SDS011;12006;42.666;23.326;2023-02-28T10:10:32;19.40;;;14.23;;
23658;SDS011;12006;42.666;23.326;2023-02-28T10:13:04;20.63;;;14.87;;
23658;SDS011;12006;42.666;23.326;2023-02-28T10:15:38;21.60;;;13.17;;
23658;SDS011;12006;42.666;23.326;2023-02-28T10:18:05;20.40;;;14.30;;
23658;SDS011;12006;42.666;23.326;2023-02-28T10:20:37;19.53;;;15.00;;
23658;SDS011;12006;42.666;23.326;2023-02-28T10:26:26;17.20;;;11.80;;
23658;SDS011;12006;42.666;23.326;2023-02-28T10:28:55;20.63;;;12.67;;
23658;SDS011;12006;42.666;23.326;2023-02-28T10:31:20;19.07;;;14.17;;
23658;SDS011;12006;42.666;23.326;2023-02-28T10:33:46;18.27;;;12.47;;
23658;SDS011;12006;42.666;23.326;2023-02-28T10:36:17;17.17;;;11.93;;
23658;SDS011;12006;42.666;23.326;2023-02-28T10:38:45;15.93;;;11.63;;
23658;SDS011;12006;42.666;23.326;2023-02-28T10:41:14;22.83;;;12.07;;
23658;SDS011;12006;42.666;23.326;2023-02-28T10:44:12;20.47;;;13.10;;
23658;SDS011;12006;42.666;23.326;2023-02-28T10:46:40;17.77;;;11.70;;
23658;SDS011;12006;42.666;23.326;2023-02-28T10:49:23;21.40;;;12.53;;
23658;SDS011;12006;42.666;23.326;2023-02-28T10:51:56;17.67;;;11.50;;
23658;SDS011;12006;42.666;23.326;2023-02-28T10:54:34;19.87;;;12.03;;
23658;SDS011;12006;42.666;23.326;2023-02-28T10:59:34;19.30;;;11.67;;
23658;SDS011;12006;42.666;23.326;2023-02-28T11:02:00;18.97;;;11.83;;
23658;SDS011;12006;42.666;23.326;2023-02-28T11:07:18;17.23;;;11.17;;
23658;SDS011;12006;42.666;23.326;2023-02-28T11:09:46;18.57;;;11.30;;
23658;SDS011;12006;42.666;23.326;2023-02-28T11:15:23;17.40;;;12.70;;
23658;SDS011;12006;42.666;23.326;2023-02-28T11:20:42;16.13;;;10.83;;
23658;SDS011;12006;42.666;23.326;2023-02-28T11:23:15;17.37;;;11.90;;
23658;SDS011;12006;42.666;23.326;2023-02-28T11:25:45;19.43;;;12.43;;
23658;SDS011;12006;42.666;23.326;2023-02-28T11:28:26;15.77;;;11.20;;
23658;SDS011;12006;42.666;23.326;2023-02-28T11:36:14;18.67;;;12.30;;
23658;SDS011;12006;42.666;23.326;2023-02-28T11:38:41;21.03;;;15.10;;
23658;SDS011;12006;42.666;23.326;2023-02-28T11:41:13;18.30;;;12.23;;
23658;SDS011;12006;42.666;23.326;2023-02-28T11:43:51;17.13;;;11.50;;
23658;SDS011;12006;42.666;23.326;2023-02-28T11:46:41;20.10;;;12.90;;
23658;SDS011;12006;42.666;23.326;2023-02-28T11:51:48;20.40;;;13.37;;
23658;SDS011;12006;42.666;23.326;2023-02-28T12:05:37;21.63;;;14.13;;
23658;SDS011;12006;42.666;23.326;2023-02-28T12:19:27;18.93;;;12.23;;
23658;SDS011;12006;42.666;23.326;2023-02-28T12:22:18;20.37;;;13.53;;
23658;SDS011;12006;42.666;23.326;2023-02-28T12:27:31;16.47;;;11.97;;
23658;SDS011;12006;42.666;23.326;2023-02-28T12:30:47;17.23;;;11.30;;
23658;SDS011;12006;42.666;23.326;2023-02-28T12:33:08;18.40;;;12.40;;
23658;SDS011;12006;42.666;23.326;2023-02-28T12:35:47;22.83;;;14.93;;
23658;SDS011;12006;42.666;23.326;2023-02-28T12:38:17;22.00;;;13.83;;
23658;SDS011;12006;42.666;23.326;2023-02-28T12:40:50;17.47;;;11.93;;
23658;SDS011;12006;42.666;23.326;2023-02-28T12:43:19;21.53;;;12.73;;
23658;SDS011;12006;42.666;23.326;2023-02-28T12:48:24;18.07;;;12.40;;
23658;SDS011;12006;42.666;23.326;2023-02-28T12:50:56;18.23;;;12.50;;
23658;SDS011;12006;42.666;23.326;2023-02-28T12:53:27;19.97;;;13.60;;
23658;SDS011;12006;42.666;23.326;2023-02-28T13:09:14;18.80;;;11.83;;
23658;SDS011;12006;42.666;23.326;2023-02-28T13:14:27;18.63;;;14.03;;
23658;SDS011;12006;42.666;23.326;2023-02-28T13:19:34;18.53;;;11.47;;
23658;SDS011;12006;42.666;23.326;2023-02-28T13:22:02;21.97;;;13.47;;
23658;SDS011;12006;42.666;23.326;2023-02-28T13:27:20;19.77;;;12.80;;
23658;SDS011;12006;42.666;23.326;2023-02-28T13:29:49;17.33;;;11.00;;
23658;SDS011;12006;42.666;23.326;2023-02-28T13:32:19;16.93;;;11.43;;
23658;SDS011;12006;42.666;23.326;2023-02-28T13:39:46;16.80;;;10.53;;
23658;SDS011;12006;42.666;23.326;2023-02-28T13:47:36;14.23;;;9.13;;
23658;SDS011;12006;42.666;23.326;2023-02-28T13:50:22;14.73;;;10.47;;
23658;SDS011;12006;42.666;23.326;2023-02-28T14:06:48;12.67;;;8.33;;
23658;SDS011;12006;42.666;23.326;2023-02-28T14:21:19;15.70;;;9.17;;
23658;SDS011;12006;42.666;23.326;2023-02-28T14:31:29;18.37;;;9.47;;
23658;SDS011;12006;42.666;23.326;2023-02-28T14:36:55;14.73;;;9.93;;
23658;SDS011;12006;42.666;23.326;2023-02-28T14:39:25;15.47;;;10.67;;
23658;SDS011;12006;42.666;23.326;2023-02-28T14:41:52;14.53;;;9.73;;
23658;SDS011;12006;42.666;23.326;2023-02-28T14:44:22;17.93;;;10.13;;
23658;SDS011;12006;42.666;23.326;2023-02-28T14:46:53;17.03;;;10.43;;
23658;SDS011;12006;42.666;23.326;2023-02-28T14:49:30;16.03;;;11.23;;
23658;SDS011;12006;42.666;23.326;2023-02-28T14:54:34;15.87;;;10.40;;
23658;SDS011;12006;42.666;23.326;2023-02-28T14:57:03;16.30;;;9.00;;
23658;SDS011;12006;42.666;23.326;2023-02-28T14:59:31;15.37;;;10.30;;
23658;SDS011;12006;42.666;23.326;2023-02-28T15:02:15;16.63;;;9.90;;
23658;SDS011;12006;42.666;23.326;2023-02-28T15:04:52;17.20;;;10.50;;
23658;SDS011;12006;42.666;23.326;2023-02-28T15:07:25;19.87;;;10.77;;
23658;SDS011;12006;42.666;23.326;2023-02-28T15:12:56;21.37;;;13.33;;
23658;SDS011;12006;42.666;23.326;2023-02-28T15:15:33;19.60;;;12.70;;
23658;SDS011;12006;42.666;23.326;2023-02-28T15:18:02;17.47;;;10.33;;
23658;SDS011;12006;42.666;23.326;2023-02-28T15:20:31;21.53;;;10.40;;
23658;SDS011;12006;42.666;23.326;2023-02-28T15:22:58;19.03;;;11.17;;
23658;SDS011;12006;42.666;23.326;2023-02-28T15:25:24;18.73;;;10.50;;
23658;SDS011;12006;42.666;23.326;2023-02-28T15:27:54;17.43;;;9.23;;
23658;SDS011;12006;42.666;23.326;2023-02-28T15:30:26;16.13;;;9.03;;
23658;SDS011;12006;42.666;23.326;2023-02-28T15:35:33;14.77;;;8.63;;
23658;SDS011;12006;42.666;23.326;2023-02-28T15:38:01;13.27;;;8.73;;
23658;SDS011;12006;42.666;23.326;2023-02-28T15:43:00;15.00;;;8.00;;
23658;SDS011;12006;42.666;23.326;2023-02-28T15:48:12;16.97;;;8.73;;
23658;SDS011;12006;42.666;23.326;2023-02-28T15:53:29;14.23;;;9.20;;
23658;SDS011;12006;42.666;23.326;2023-02-28T15:56:03;14.00;;;10.87;;
23658;SDS011;12006;42.666;23.326;2023-02-28T15:58:32;13.53;;;9.17;;
23658;SDS011;12006;42.666;23.326;2023-02-28T16:01:23;12.90;;;8.47;;
23658;SDS011;12006;42.666;23.326;2023-02-28T16:04:01;10.73;;;8.07;;
23658;SDS011;12006;42.666;23.326;2023-02-28T16:09:13;10.43;;;7.73;;
23658;SDS011;12006;42.666;23.326;2023-02-28T16:11:41;11.13;;;7.67;;
23658;SDS011;12006;42.666;23.326;2023-02-28T16:14:15;11.63;;;8.03;;
23658;SDS011;12006;42.666;23.326;2023-02-28T16:16:46;11.87;;;8.10;;
23658;SDS011;12006;42.666;23.326;2023-02-28T16:19:14;10.67;;;8.03;;
23658;SDS011;12006;42.666;23.326;2023-02-28T16:21:39;10.97;;;8.87;;
23658;SDS011;12006;42.666;23.326;2023-02-28T16:24:05;12.13;;;8.80;;
23658;SDS011;12006;42.666;23.326;2023-02-28T16:26:31;10.57;;;8.77;;
23658;SDS011;12006;42.666;23.326;2023-02-28T16:28:59;11.47;;;8.70;;
23658;SDS011;12006;42.666;23.326;2023-02-28T16:31:25;11.60;;;7.97;;
23658;SDS011;12006;42.666;23.326;2023-02-28T16:33:50;11.47;;;8.00;;
23658;SDS011;12006;42.666;23.326;2023-02-28T16:36:17;12.03;;;8.30;;
23658;SDS011;12006;42.666;23.326;2023-02-28T16:38:44;10.10;;;8.27;;
23658;SDS011;12006;42.666;23.326;2023-02-28T16:41:11;7.77;;;6.43;;
23658;SDS011;12006;42.666;23.326;2023-02-28T16:43:43;9.83;;;7.17;;
23658;SDS011;12006;42.666;23.326;2023-02-28T16:46:09;7.93;;;6.40;;
23658;SDS011;12006;42.666;23.326;2023-02-28T16:48:36;9.77;;;7.00;;
23658;SDS011;12006;42.666;23.326;2023-02-28T16:51:02;11.30;;;7.23;;
23658;SDS011;12006;42.666;23.326;2023-02-28T16:53:29;9.73;;;7.53;;
23658;SDS011;12006;42.666;23.326;2023-02-28T16:55:55;9.13;;;6.90;;
23658;SDS011;12006;42.666;23.326;2023-02-28T16:58:20;10.00;;;6.70;;
23658;SDS011;12006;42.666;23.326;2023-02-28T17:00:46;11.23;;;7.73;;
23658;SDS011;12006;42.666;23.326;2023-02-28T17:05:46;7.63;;;5.63;;
23658;SDS011;12006;42.666;23.326;2023-02-28T17:08:12;7.00;;;5.60;;
23658;SDS011;12006;42.666;23.326;2023-02-28T17:10:37;8.03;;;5.93;;
23658;SDS011;12006;42.666;23.326;2023-02-28T17:13:03;6.47;;;5.40;;
23658;SDS011;12006;42.666;23.326;2023-02-28T17:15:28;8.20;;;5.50;;
23658;SDS011;12006;42.666;23.326;2023-02-28T17:17:54;6.77;;;5.00;;
23658;SDS011;12006;42.666;23.326;2023-02-28T17:20:20;6.57;;;5.43;;
23658;SDS011;12006;42.666;23.326;2023-02-28T17:22:47;6.77;;;5.27;;
23658;SDS011;12006;42.666;23.326;2023-02-28T17:25:13;8.50;;;5.30;;
23658;SDS011;12006;42.666;23.326;2023-02-28T17:27:39;7.80;;;5.97;;